Accueil
METAR-TAF:

METAR-TAF

Aéroports :

Base aérienne de Florennes

Florennes, Belgique

latitude: 50-14N, longitude: 004-39E, altitude: 279 m

Observation

Le bulletin a été fait il y a 45 minutes, à 12:25 UTC
Vent 6 kt de sud/sud-ouest
Température 23°C
Humidité 44%
Pression 1026 hPa
Visibilité 10 km ou plus
Quelques nuages à une hauteur de 5000 ft
Nuages épars à une hauteur de 22000 ft

METAR: EBFS 221225Z 20006KT 9999 FEW050 SCT220 23/10 Q1026 BLU BLU

Heure: 15:10 (13:10 UTC)

Prévision

Le bulletin a été fait il y a 1 heure et 29 minutes, à 11:41 UTC
Prévision valable du 22 à 13 UTC au 22 à 22 UTC
Vent 7 kt de sud-ouest
Visibilité 10 km ou plus
Quelques nuages à une hauteur de 4000 ft
Nuages épars à une hauteur de 25000 ft

TAF: EBFS 221141Z 2213/2222 23007KT 9999 FEW040 SCT250

Observations et prévisions météorologiques de plus de 4000 aéroports (messages METAR et TAF).

Les stations disponibles sont représentées par des disques jaunes et rouges sur la carte.

Passer la souris dessus pour voir le nom de la station.

Cliquer dessus pour voir les observations et prévisions météorologiques.

Pour changer de carte: cliquez sur les boutons verts avec une croix noire pour zoomer, sur le bouton vert avec un tiret pour effectuer un zoom arrière, ou sur les flèches vertes pour les cartes adjacentes.


METAR-TAF: